Time;durP1;ratioP1;P1;durP2;ratioP2;P2;SDS_P1;SDS_P2;PMS_P1;PMS_P2;Temp;Humidity;BMP_temperature;BMP_pressure;BME280_temperature;BME280_humidity;BME280_pressure;Samples;Min_cycle;Max_cycle;Signal;HPM_P1;HPM_P2
2022/08/23 00:00:16;;;;;;;;;;;;;;;;;;6242864;23;19915;-65
2022/08/23 00:02:41;;;;;;;;;;;;;;;;;;6243914;23;19911;-65
2022/08/23 00:05:07;;;;;;;;;;;;;;;;;;6216757;23;19916;-66
2022/08/23 00:07:32;;;;;;;;;;;;;;;;;;6243738;23;19903;-65
2022/08/23 00:09:58;;;;;;;;;;;;;;;;;;6243448;23;20341;-66
2022/08/23 00:12:24;;;;;;;;;;;;;;;;;;6243570;23;19914;-66
2022/08/23 00:14:50;;;;;;;;;;;;;;;;;;6243592;23;20255;-67
2022/08/23 00:17:15;;;;;;;;;;;;;;;;;;6243316;23;20383;-66
2022/08/23 00:19:41;;;;;;;;;;;;;;;;;;6243433;23;19918;-66
2022/08/23 00:22:06;;;;;;;;;;;;;;;;;;6243337;23;19938;-66
2022/08/23 00:24:32;;;;;;;;;;;;;;;;;;6243322;23;20001;-66
2022/08/23 00:26:58;;;;;;;;;;;;;;;;;;6243304;23;20256;-65
2022/08/23 00:29:24;;;;;;;;;;;;;;;;;;6243396;23;19907;-65
2022/08/23 00:31:50;;;;;;;;;;;;;;;;;;6244827;22;19982;-65
2022/08/23 00:34:15;;;;;;;;;;;;;;;;;;6216384;23;19977;-66
2022/08/23 00:36:41;;;;;;;;;;;;;;;;;;6243340;23;19912;-66
2022/08/23 00:39:07;;;;;;;;;;;;;;;;;;6243187;23;19914;-65
2022/08/23 00:41:32;;;;;;;;;;;;;;;;;;6216369;23;19994;-65
2022/08/23 00:49:27;;;;;;;;;;;;;;;;;;6243280;23;19915;-65
2022/08/23 00:51:53;;;;;;;;;;;;;;;;;;6216539;23;19907;-65
2022/08/23 00:54:18;;;;;;;;;;;;;;;;;;6216298;23;19918;-65
2022/08/23 00:56:44;;;;;;;;;;;;;;;;;;6243293;23;19914;-66
2022/08/23 00:59:10;;;;;;;;;;;;;;;;;;6242708;23;20303;-65
2022/08/23 01:01:36;;;;;;;;;;;;;;;;;;6243694;23;19907;-65
2022/08/23 01:04:01;;;;;;;;;;;;;;;;;;6243441;23;19946;-67
2022/08/23 01:06:27;;;;;;;;;;;;;;;;;;6242968;23;20422;-64
2022/08/23 01:08:53;;;;;;;;;;;;;;;;;;6243245;23;19908;-66
2022/08/23 01:11:19;;;;;;;;;;;;;;;;;;6215863;23;20079;-65
2022/08/23 01:13:44;;;;;;;;;;;;;;;;;;6243256;23;20427;-64
2022/08/23 01:16:10;;;;;;;;;;;;;;;;;;6242961;23;20375;-64
2022/08/23 01:18:35;;;;;;;;;;;;;;;;;;6243106;23;19911;-66
2022/08/23 01:21:01;;;;;;;;;;;;;;;;;;6242701;23;20386;-65
2022/08/23 01:23:27;;;;;;;;;;;;;;;;;;6216171;23;19922;-65
2022/08/23 01:25:52;;;;;;;;;;;;;;;;;;6216167;23;19903;-64
2022/08/23 01:28:18;;;;;;;;;;;;;;;;;;6215932;23;19907;-63
2022/08/23 01:30:45;;;;;;;;;;;;;;;;;;6216140;23;19907;-65
2022/08/23 01:33:11;;;;;;;;;;;;;;;;;;6190919;23;19907;-65
2022/08/23 01:35:37;;;;;;;;;;;;;;;;;;6216020;23;20326;-63
2022/08/23 01:38:03;;;;;;;;;;;;;;;;;;6215932;23;19914;-66
2022/08/23 01:40:28;;;;;;;;;;;;;;;;;;6241082;23;19908;-65
2022/08/23 01:42:54;;;;;;;;;;;;;;;;;;6242507;23;19908;-65
2022/08/23 01:45:20;;;;;;;;;;;;;;;;;;6242341;23;19990;-67
2022/08/23 01:47:46;;;;;;;;;;;;;;;;;;6216127;23;19915;-66
2022/08/23 01:50:13;;;;;;;;;;;;;;;;;;6215492;23;19911;-65
2022/08/23 01:52:38;;;;;;;;;;;;;;;;;;6216109;23;20402;-64
2022/08/23 01:55:04;;;;;;;;;;;;;;;;;;6190444;23;19938;-65
2022/08/23 01:57:30;;;;;;;;;;;;;;;;;;6242692;23;19907;-63
2022/08/23 01:59:56;;;;;;;;;;;;;;;;;;6215708;23;19961;-65
2022/08/23 02:02:21;;;;;;;;;;;;;;;;;;6215482;23;19912;-65
2022/08/23 02:04:47;;;;;;;;;;;;;;;;;;6215513;23;19915;-65
2022/08/23 02:07:13;;;;;;;;;;;;;;;;;;6215337;23;19907;-65
2022/08/23 02:09:38;;;;;;;;;;;;;;;;;;6215859;23;19907;-65
2022/08/23 02:12:04;;;;;;;;;;;;;;;;;;6215550;23;19959;-65
2022/08/23 02:14:30;;;;;;;;;;;;;;;;;;6242555;23;20379;-65
2022/08/23 02:16:59;;;;;;;;;;;;;;;;;;6216454;23;20260;-67
2022/08/23 02:19:24;;;;;;;;;;;;;;;;;;6242184;23;19903;-65
2022/08/23 02:21:50;;;;;;;;;;;;;;;;;;6215768;23;19908;-64
2022/08/23 02:24:16;;;;;;;;;;;;;;;;;;6216482;23;19915;-65
2022/08/23 02:26:41;;;;;;;;;;;;;;;;;;6242499;23;19918;-67
2022/08/23 02:29:07;;;;;;;;;;;;;;;;;;6190515;23;20348;-66
2022/08/23 02:31:33;;;;;;;;;;;;;;;;;;6215371;23;19908;-63
2022/08/23 02:33:59;;;;;;;;;;;;;;;;;;6216173;23;19935;-64
2022/08/23 02:36:26;;;;;;;;;;;;;;;;;;6190391;23;19957;-65
2022/08/23 02:38:52;;;;;;;;;;;;;;;;;;6215684;23;19983;-66
2022/08/23 02:41:18;;;;;;;;;;;;;;;;;;6190157;23;19915;-65
2022/08/23 02:43:44;;;;;;;;;;;;;;;;;;6215579;23;19915;-64
2022/08/23 02:46:09;;;;;;;;;;;;;;;;;;6215132;23;19957;-64
2022/08/23 02:48:35;;;;;;;;;;;;;;;;;;6215500;23;19935;-64
2022/08/23 02:51:02;;;;;;;;;;;;;;;;;;6215130;23;20329;-63
2022/08/23 02:53:28;;;;;;;;;;;;;;;;;;6215775;23;19908;-65
2022/08/23 02:55:54;;;;;;;;;;;;;;;;;;6217485;23;19907;-66
2022/08/23 02:58:20;;;;;;;;;;;;;;;;;;6242120;23;20322;-65
2022/08/23 03:00:45;;;;;;;;;;;;;;;;;;6244395;23;19935;-65
2022/08/23 03:03:11;;;;;;;;;;;;;;;;;;6216588;23;19969;-65
2022/08/23 03:05:37;;;;;;;;;;;;;;;;;;6217482;23;19907;-65
2022/08/23 03:08:04;;;;;;;;;;;;;;;;;;6217425;23;19915;-64
2022/08/23 03:10:35;;;;;;;;;;;;;;;;;;6217464;23;19907;-64
2022/08/23 03:13:01;;;;;;;;;;;;;;;;;;6217604;23;19974;-64
2022/08/23 03:15:26;;;;;;;;;;;;;;;;;;6243731;23;20374;-66
2022/08/23 03:17:52;;;;;;;;;;;;;;;;;;6217578;23;19908;-66
2022/08/23 03:20:18;;;;;;;;;;;;;;;;;;6216868;23;19910;-66
2022/08/23 03:22:45;;;;;;;;;;;;;;;;;;6217491;23;19907;-65
2022/08/23 03:25:11;;;;;;;;;;;;;;;;;;6216845;23;19961;-65
2022/08/23 03:27:52;;;;;;;;;;;;;;;;;;6217583;23;19934;-65
2022/08/23 03:30:18;;;;;;;;;;;;;;;;;;6216912;23;20344;-66
2022/08/23 03:32:44;;;;;;;;;;;;;;;;;;6244000;22;19990;-66
2022/08/23 03:35:09;;;;;;;;;;;;;;;;;;6216746;23;19915;-65
2022/08/23 03:37:35;;;;;;;;;;;;;;;;;;6192272;23;20233;-65
2022/08/23 03:40:01;;;;;;;;;;;;;;;;;;6217134;23;19908;-66
2022/08/23 03:42:26;;;;;;;;;;;;;;;;;;6217326;23;20405;-65
2022/08/23 03:44:52;;;;;;;;;;;;;;;;;;6192396;23;20336;-65
2022/08/23 03:47:18;;;;;;;;;;;;;;;;;;6216844;23;19911;-67
2022/08/23 03:49:44;;;;;;;;;;;;;;;;;;6192405;23;19915;-66
2022/08/23 03:52:10;;;;;;;;;;;;;;;;;;6243364;23;19907;-64
2022/08/23 03:54:36;;;;;;;;;;;;;;;;;;6217021;23;19915;-64
2022/08/23 03:57:01;;;;;;;;;;;;;;;;;;6216825;23;19911;-65
2022/08/23 03:59:31;;;;;;;;;;;;;;;;;;6216616;23;19915;-65
2022/08/23 04:01:57;;;;;;;;;;;;;;;;;;6217160;23;19907;-66
2022/08/23 04:04:22;;;;;;;;;;;;;;;;;;6216669;23;19961;-64
2022/08/23 04:07:20;;;;;;;;;;;;;;;;;;6192277;23;19911;-65
2022/08/23 04:09:49;;;;;;;;;;;;;;;;;;6216991;23;19914;-65
2022/08/23 04:12:15;;;;;;;;;;;;;;;;;;6216370;23;19935;-66
2022/08/23 04:14:41;;;;;;;;;;;;;;;;;;6216960;23;19907;-67
2022/08/23 04:17:06;;;;;;;;;;;;;;;;;;6217031;23;19994;-66
2022/08/23 04:19:32;;;;;;;;;;;;;;;;;;6243077;23;19911;-66
2022/08/23 04:22:01;;;;;;;;;;;;;;;;;;6216708;23;19911;-66
2022/08/23 04:24:33;;;;;;;;;;;;;;;;;;6216494;23;19958;-66
2022/08/23 04:26:59;;;;;;;;;;;;;;;;;;6216628;23;19907;-66
2022/08/23 04:29:25;;;;;;;;;;;;;;;;;;6216253;23;19977;-66
2022/08/23 04:31:51;;;;;;;;;;;;;;;;;;6216439;23;19908;-65
2022/08/23 04:34:16;;;;;;;;;;;;;;;;;;6216317;23;19907;-65
2022/08/23 04:36:42;;;;;;;;;;;;;;;;;;6216155;23;19913;-67
2022/08/23 04:39:08;;;;;;;;;;;;;;;;;;6243293;23;19907;-65
2022/08/23 04:44:18;;;;;;;;;;;;;;;;;;6242723;23;20386;-66
2022/08/23 04:46:47;;;;;;;;;;;;;;;;;;6216705;23;19907;-68
2022/08/23 04:49:14;;;;;;;;;;;;;;;;;;6216134;23;19907;-67
2022/08/23 04:51:39;;;;;;;;;;;;;;;;;;6216339;23;20415;-67
2022/08/23 04:54:06;;;;;;;;;;;;;;;;;;6216645;23;19907;-66
2022/08/23 04:56:35;;;;;;;;;;;;;;;;;;6242939;23;20230;-67
2022/08/23 04:59:02;;;;;;;;;;;;;;;;;;6216017;23;19915;-68
2022/08/23 05:01:28;;;;;;;;;;;;;;;;;;6215809;23;19916;-67
2022/08/23 05:03:54;;;;;;;;;;;;;;;;;;6216218;23;20262;-67
2022/08/23 05:06:20;;;;;;;;;;;;;;;;;;6215789;23;19915;-67
2022/08/23 05:08:46;;;;;;;;;;;;;;;;;;6242915;23;19907;-66
2022/08/23 05:11:12;;;;;;;;;;;;;;;;;;6215815;23;19934;-67
2022/08/23 05:13:39;;;;;;;;;;;;;;;;;;6216255;23;19907;-66
2022/08/23 05:16:07;;;;;;;;;;;;;;;;;;6190967;23;19969;-67
2022/08/23 05:18:37;;;;;;;;;;;;;;;;;;6215689;23;19907;-67
2022/08/23 05:21:04;;;;;;;;;;;;;;;;;;6242789;23;20257;-67
2022/08/23 05:23:30;;;;;;;;;;;;;;;;;;6215800;23;19915;-68
2022/08/23 05:26:00;;;;;;;;;;;;;;;;;;6216224;23;19914;-67
2022/08/23 05:28:38;;;;;;;;;;;;;;;;;;6216089;23;19915;-66
2022/08/23 05:31:04;;;;;;;;;;;;;;;;;;6215947;22;19907;-67
2022/08/23 05:33:37;;;;;;;;;;;;;;;;;;6216232;23;20302;-67
2022/08/23 05:36:03;;;;;;;;;;;;;;;;;;6215931;23;19907;-67
2022/08/23 05:38:29;;;;;;;;;;;;;;;;;;6242415;23;19931;-66
2022/08/23 05:40:56;;;;;;;;;;;;;;;;;;6215852;23;19942;-64
2022/08/23 05:43:22;;;;;;;;;;;;;;;;;;6215476;23;19919;-67
2022/08/23 05:45:47;;;;;;;;;;;;;;;;;;6215968;23;19914;-66
2022/08/23 05:48:14;;;;;;;;;;;;;;;;;;6242467;23;19907;-67
2022/08/23 05:50:49;;;;;;;;;;;;;;;;;;6215891;23;19908;-66
2022/08/23 05:53:15;;;;;;;;;;;;;;;;;;6215586;23;19930;-66
2022/08/23 05:55:42;;;;;;;;;;;;;;;;;;6215459;23;19907;-67
2022/08/23 05:58:14;;;;;;;;;;;;;;;;;;6242038;23;19907;-68
2022/08/23 06:00:39;;;;;;;;;;;;;;;;;;6215779;23;20296;-67
2022/08/23 06:03:05;;;;;;;;;;;;;;;;;;6215880;23;19908;-66
2022/08/23 06:05:32;;;;;;;;;;;;;;;;;;6215342;23;19921;-67
2022/08/23 06:07:59;;;;;;;;;;;;;;;;;;6215996;23;19982;-66
2022/08/23 06:10:25;;;;;;;;;;;;;;;;;;6242204;23;19997;-68
2022/08/23 06:12:58;;;;;;;;;;;;;;;;;;6215565;23;19997;-66
2022/08/23 06:15:24;;;;;;;;;;;;;;;;;;6214774;23;19909;-66
2022/08/23 06:17:50;;;;;;;;;;;;;;;;;;6214978;23;19907;-66
2022/08/23 06:20:16;;;;;;;;;;;;;;;;;;6214889;23;19907;-68
2022/08/23 06:22:59;;;;;;;;;;;;;;;;;;6215278;23;19915;-67
2022/08/23 06:25:25;;;;;;;;;;;;;;;;;;6241935;23;19908;-68
2022/08/23 06:27:54;;;;;;;;;;;;;;;;;;6215685;23;20264;-66
2022/08/23 06:30:20;;;;;;;;;;;;;;;;;;6215175;23;19907;-66
2022/08/23 06:32:46;;;;;;;;;;;;;;;;;;6242153;22;20344;-66
2022/08/23 06:35:43;;;;;;;;;;;;;;;;;;6191553;23;20243;-66
2022/08/23 06:38:14;;;;;;;;;;;;;;;;;;6215341;23;19914;-66
2022/08/23 06:40:58;;;;;;;;;;;;;;;;;;6242299;23;19907;-67
2022/08/23 06:43:24;;;;;;;;;;;;;;;;;;6241929;23;19953;-68
2022/08/23 06:45:59;;;;;;;;;;;;;;;;;;6215470;23;19911;-66
2022/08/23 06:48:24;;;;;;;;;;;;;;;;;;6241875;23;19935;-65
2022/08/23 06:50:50;;;;;;;;;;;;;;;;;;6242001;23;19907;-67
2022/08/23 06:53:29;;;;;;;;;;;;;;;;;;6242167;23;19907;-66
2022/08/23 06:56:13;;;;;;;;;;;;;;;;;;6215416;23;19907;-66
2022/08/23 06:58:48;;;;;;;;;;;;;;;;;;6215017;23;19915;-66
2022/08/23 07:01:28;;;;;;;;;;;;;;;;;;6215146;23;19998;-66
2022/08/23 07:04:06;;;;;;;;;;;;;;;;;;6215367;23;19915;-67
2022/08/23 07:06:50;;;;;;;;;;;;;;;;;;6242267;23;20364;-65
2022/08/23 07:09:17;;;;;;;;;;;;;;;;;;6215394;23;19939;-68
2022/08/23 07:11:43;;;;;;;;;;;;;;;;;;6242017;23;19908;-68
2022/08/23 07:14:09;;;;;;;;;;;;;;;;;;6215577;23;19907;-67
2022/08/23 07:16:34;;;;;;;;;;;;;;;;;;6214950;23;19915;-66
2022/08/23 07:19:00;;;;;;;;;;;;;;;;;;6215579;23;19911;-68
2022/08/23 07:21:26;;;;;;;;;;;;;;;;;;6241696;23;19908;-65
2022/08/23 07:23:52;;;;;;;;;;;;;;;;;;6242157;23;19919;-66
2022/08/23 07:26:18;;;;;;;;;;;;;;;;;;6242154;23;19938;-66
2022/08/23 07:28:44;;;;;;;;;;;;;;;;;;6215556;23;19953;-67
2022/08/23 07:31:09;;;;;;;;;;;;;;;;;;6215285;22;19995;-67
2022/08/23 07:33:35;;;;;;;;;;;;;;;;;;6215167;23;19990;-66
2022/08/23 07:36:11;;;;;;;;;;;;;;;;;;6188485;23;20388;-67
2022/08/23 07:38:37;;;;;;;;;;;;;;;;;;6214912;23;19938;-66
2022/08/23 07:41:02;;;;;;;;;;;;;;;;;;6242664;23;19907;-68
2022/08/23 07:43:28;;;;;;;;;;;;;;;;;;6243588;23;19915;-67
2022/08/23 07:45:54;;;;;;;;;;;;;;;;;;6243862;23;19920;-67
2022/08/23 07:48:20;;;;;;;;;;;;;;;;;;6216991;23;19907;-68
2022/08/23 07:51:02;;;;;;;;;;;;;;;;;;6191819;23;19911;-66
2022/08/23 07:53:28;;;;;;;;;;;;;;;;;;6216904;23;19938;-67
2022/08/23 07:55:53;;;;;;;;;;;;;;;;;;6242213;23;19907;-67
2022/08/23 07:58:39;;;;;;;;;;;;;;;;;;6242643;23;19915;-66
2022/08/23 08:01:24;;;;;;;;;;;;;;;;;;6243549;23;19913;-66
2022/08/23 08:03:51;;;;;;;;;;;;;;;;;;6217232;23;19916;-67
2022/08/23 08:06:23;;;;;;;;;;;;;;;;;;6216455;23;20239;-67
2022/08/23 08:08:48;;;;;;;;;;;;;;;;;;6217005;23;20429;-68
2022/08/23 08:11:15;;;;;;;;;;;;;;;;;;6216841;23;19997;-67
2022/08/23 08:13:41;;;;;;;;;;;;;;;;;;6216563;23;19907;-67
2022/08/23 08:16:07;;;;;;;;;;;;;;;;;;6243420;23;19961;-66
2022/08/23 08:18:35;;;;;;;;;;;;;;;;;;6216253;23;19954;-66
2022/08/23 08:21:21;;;;;;;;;;;;;;;;;;6241159;23;19913;-66
2022/08/23 08:24:10;;;;;;;;;;;;;;;;;;6242167;23;20002;-67
2022/08/23 08:26:40;;;;;;;;;;;;;;;;;;6216439;23;19935;-67
2022/08/23 08:29:06;;;;;;;;;;;;;;;;;;6216671;23;19914;-68
2022/08/23 08:31:35;;;;;;;;;;;;;;;;;;6216103;23;19908;-65
2022/08/23 08:34:00;;;;;;;;;;;;;;;;;;6216852;23;19908;-68
2022/08/23 08:36:26;;;;;;;;;;;;;;;;;;6216278;23;19914;-67
2022/08/23 08:38:52;;;;;;;;;;;;;;;;;;6216589;23;20352;-67
2022/08/23 08:41:20;;;;;;;;;;;;;;;;;;6216531;23;19912;-67
2022/08/23 08:43:46;;;;;;;;;;;;;;;;;;6216194;23;20410;-67
2022/08/23 08:46:11;;;;;;;;;;;;;;;;;;6216586;23;20323;-66
2022/08/23 08:48:37;;;;;;;;;;;;;;;;;;6242894;23;20267;-67
2022/08/23 08:51:03;;;;;;;;;;;;;;;;;;6243143;23;19915;-68
2022/08/23 08:53:29;;;;;;;;;;;;;;;;;;6166243;23;19907;-67
2022/08/23 08:55:57;;;;;;;;;;;;;;;;;;6243168;23;19907;-67
2022/08/23 08:58:23;;;;;;;;;;;;;;;;;;6215919;23;19915;-69
2022/08/23 09:00:50;;;;;;;;;;;;;;;;;;6216352;23;19943;-67
2022/08/23 09:03:19;;;;;;;;;;;;;;;;;;6216129;23;19908;-68
2022/08/23 09:05:45;;;;;;;;;;;;;;;;;;6215894;23;20394;-68
2022/08/23 09:08:11;;;;;;;;;;;;;;;;;;6216126;23;19907;-66
2022/08/23 09:10:36;;;;;;;;;;;;;;;;;;6216159;23;19986;-67
2022/08/23 09:13:06;;;;;;;;;;;;;;;;;;6191085;23;19907;-67
2022/08/23 09:15:32;;;;;;;;;;;;;;;;;;6190972;23;20237;-65
2022/08/23 09:17:58;;;;;;;;;;;;;;;;;;6216198;23;20144;-68
2022/08/23 09:20:24;;;;;;;;;;;;;;;;;;6216368;23;20551;-67
2022/08/23 09:22:50;;;;;;;;;;;;;;;;;;6242949;23;19908;-67
2022/08/23 09:25:24;;;;;;;;;;;;;;;;;;6216180;23;19931;-69
2022/08/23 09:28:10;;;;;;;;;;;;;;;;;;6242370;23;20053;-69
2022/08/23 09:30:35;;;;;;;;;;;;;;;;;;6242545;23;19908;-68
2022/08/23 09:33:01;;;;;;;;;;;;;;;;;;6215717;23;19931;-68
2022/08/23 09:35:26;;;;;;;;;;;;;;;;;;6242411;23;19953;-68
2022/08/23 09:38:05;;;;;;;;;;;;;;;;;;6215937;23;19907;-67
2022/08/23 09:40:32;;;;;;;;;;;;;;;;;;6215394;23;19911;-67
2022/08/23 09:42:58;;;;;;;;;;;;;;;;;;6215675;23;20268;-67
2022/08/23 09:45:24;;;;;;;;;;;;;;;;;;6215795;23;20060;-68
2022/08/23 09:47:49;;;;;;;;;;;;;;;;;;6215571;23;20413;-68
2022/08/23 09:50:17;;;;;;;;;;;;;;;;;;6215568;23;19907;-67
2022/08/23 09:52:43;;;;;;;;;;;;;;;;;;6190842;23;19998;-68
2022/08/23 09:55:10;;;;;;;;;;;;;;;;;;6215582;23;19953;-67
2022/08/23 09:57:41;;;;;;;;;;;;;;;;;;6215397;23;19914;-66
2022/08/23 10:00:07;;;;;;;;;;;;;;;;;;6242341;23;20272;-67
2022/08/23 10:02:38;;;;;;;;;;;;;;;;;;6242052;23;19908;-67
2022/08/23 10:05:17;;;;;;;;;;;;;;;;;;6215604;23;19916;-68
2022/08/23 10:07:45;;;;;;;;;;;;;;;;;;6190656;23;19907;-67
2022/08/23 10:10:13;;;;;;;;;;;;;;;;;;6215842;23;19908;-66
2022/08/23 10:12:39;;;;;;;;;;;;;;;;;;6215331;23;19942;-67
2022/08/23 10:15:08;;;;;;;;;;;;;;;;;;6215763;23;19931;-67
2022/08/23 10:17:34;;;;;;;;;;;;;;;;;;6215347;23;19915;-67
2022/08/23 10:20:03;;;;;;;;;;;;;;;;;;6215899;23;19911;-67
2022/08/23 10:22:29;;;;;;;;;;;;;;;;;;6215651;23;19907;-70
2022/08/23 10:25:24;;;;;;;;;;;;;;;;;;6207073;23;19923;-67
2022/08/23 10:30:34;;;;;;;;;;;;;;;;;;6215296;23;20243;-70
2022/08/23 10:33:01;;;;;;;;;;;;;;;;;;6190181;23;19939;-66
2022/08/23 10:35:28;;;;;;;;;;;;;;;;;;6215587;23;19908;-67
2022/08/23 10:37:54;;;;;;;;;;;;;;;;;;6214915;23;19942;-66
2022/08/23 10:40:19;;;;;;;;;;;;;;;;;;6215519;23;19907;-68
2022/08/23 10:42:45;;;;;;;;;;;;;;;;;;6215101;23;19911;-67
2022/08/23 10:45:11;;;;;;;;;;;;;;;;;;6242255;23;20088;-66
2022/08/23 10:47:36;;;;;;;;;;;;;;;;;;6189964;23;19907;-67
2022/08/23 10:50:04;;;;;;;;;;;;;;;;;;6215487;23;19908;-68
2022/08/23 10:52:30;;;;;;;;;;;;;;;;;;6215435;23;20366;-67
2022/08/23 10:54:59;;;;;;;;;;;;;;;;;;6190888;23;19942;-68
2022/08/23 10:57:27;;;;;;;;;;;;;;;;;;6215224;23;19907;-68
2022/08/23 10:59:54;;;;;;;;;;;;;;;;;;6241639;23;19969;-69
2022/08/23 11:02:20;;;;;;;;;;;;;;;;;;6215460;23;19990;-66
2022/08/23 11:04:53;;;;;;;;;;;;;;;;;;6215017;23;19965;-67
2022/08/23 11:07:29;;;;;;;;;;;;;;;;;;6215857;23;19914;-68
2022/08/23 11:09:57;;;;;;;;;;;;;;;;;;6215674;23;19939;-67
2022/08/23 11:12:24;;;;;;;;;;;;;;;;;;6215298;23;19954;-66
2022/08/23 11:14:50;;;;;;;;;;;;;;;;;;6215287;23;19911;-68
2022/08/23 11:17:15;;;;;;;;;;;;;;;;;;6191844;23;19907;-68
2022/08/23 11:19:41;;;;;;;;;;;;;;;;;;6217219;23;19907;-66
2022/08/23 11:22:08;;;;;;;;;;;;;;;;;;6244475;23;19904;-68
2022/08/23 11:24:35;;;;;;;;;;;;;;;;;;6216765;23;19916;-67
2022/08/23 11:27:03;;;;;;;;;;;;;;;;;;6216828;23;19957;-67
2022/08/23 11:29:28;;;;;;;;;;;;;;;;;;6217341;23;19958;-67
2022/08/23 11:32:09;;;;;;;;;;;;;;;;;;6217166;23;19914;-67
2022/08/23 11:34:34;;;;;;;;;;;;;;;;;;6243805;23;19907;-67
2022/08/23 11:37:05;;;;;;;;;;;;;;;;;;6217105;23;19907;-67
2022/08/23 11:39:31;;;;;;;;;;;;;;;;;;6217276;23;19939;-67
2022/08/23 11:41:57;;;;;;;;;;;;;;;;;;6243646;23;19914;-67
2022/08/23 11:44:27;;;;;;;;;;;;;;;;;;6217334;23;19915;-66
2022/08/23 11:46:54;;;;;;;;;;;;;;;;;;6216833;23;20336;-67
2022/08/23 11:49:19;;;;;;;;;;;;;;;;;;6217136;23;19961;-69
2022/08/23 11:51:45;;;;;;;;;;;;;;;;;;6243375;23;20332;-68
2022/08/23 11:54:11;;;;;;;;;;;;;;;;;;6243768;23;19919;-67
2022/08/23 11:56:36;;;;;;;;;;;;;;;;;;6243452;23;19907;-67
2022/08/23 11:59:02;;;;;;;;;;;;;;;;;;6243602;23;20284;-67
2022/08/23 12:01:28;;;;;;;;;;;;;;;;;;6243847;23;19993;-67
2022/08/23 12:03:54;;;;;;;;;;;;;;;;;;6216448;23;19997;-67
2022/08/23 12:06:19;;;;;;;;;;;;;;;;;;6243328;23;19914;-67
2022/08/23 12:08:45;;;;;;;;;;;;;;;;;;6242385;23;19946;-68
2022/08/23 12:11:11;;;;;;;;;;;;;;;;;;6243427;23;19907;-68
2022/08/23 12:13:36;;;;;;;;;;;;;;;;;;6243128;23;19908;-68
2022/08/23 12:16:02;;;;;;;;;;;;;;;;;;6243651;23;19994;-67
2022/08/23 12:18:28;;;;;;;;;;;;;;;;;;6244086;23;19988;-66
2022/08/23 12:20:53;;;;;;;;;;;;;;;;;;6243404;23;19907;-67
2022/08/23 12:23:19;;;;;;;;;;;;;;;;;;6243350;23;20314;-66
2022/08/23 12:25:45;;;;;;;;;;;;;;;;;;6243296;23;20375;-68
2022/08/23 12:28:11;;;;;;;;;;;;;;;;;;6243135;23;19907;-67
2022/08/23 12:30:37;;;;;;;;;;;;;;;;;;6243067;23;19993;-68
2022/08/23 12:33:03;;;;;;;;;;;;;;;;;;6243217;22;19908;-66
2022/08/23 12:35:29;;;;;;;;;;;;;;;;;;6243202;23;19969;-69
2022/08/23 12:37:54;;;;;;;;;;;;;;;;;;6242766;23;19988;-67
2022/08/23 12:40:20;;;;;;;;;;;;;;;;;;6243260;23;19914;-65
2022/08/23 12:42:46;;;;;;;;;;;;;;;;;;6242843;23;19908;-68
2022/08/23 12:45:11;;;;;;;;;;;;;;;;;;6216540;23;19916;-68
2022/08/23 12:47:40;;;;;;;;;;;;;;;;;;6243169;23;19914;-67
2022/08/23 12:50:08;;;;;;;;;;;;;;;;;;6243409;23;19998;-68
2022/08/23 12:52:33;;;;;;;;;;;;;;;;;;6241451;23;19907;-67
2022/08/23 12:54:59;;;;;;;;;;;;;;;;;;6241342;23;20391;-66
2022/08/23 12:57:24;;;;;;;;;;;;;;;;;;6216361;23;19907;-67
2022/08/23 12:59:50;;;;;;;;;;;;;;;;;;6242726;23;19941;-67
2022/08/23 13:02:16;;;;;;;;;;;;;;;;;;6243010;23;20257;-67
2022/08/23 13:04:43;;;;;;;;;;;;;;;;;;6242557;23;19919;-67
2022/08/23 13:07:08;;;;;;;;;;;;;;;;;;6243064;23;20233;-65
2022/08/23 13:09:35;;;;;;;;;;;;;;;;;;6243102;23;19908;-67
2022/08/23 13:12:01;;;;;;;;;;;;;;;;;;6242795;23;19958;-67
2022/08/23 13:14:26;;;;;;;;;;;;;;;;;;6243159;23;19907;-66
2022/08/23 13:16:52;;;;;;;;;;;;;;;;;;6242787;23;20045;-66
2022/08/23 13:19:19;;;;;;;;;;;;;;;;;;6242876;23;19907;-67
2022/08/23 13:21:44;;;;;;;;;;;;;;;;;;6242488;23;20255;-67
2022/08/23 13:24:10;;;;;;;;;;;;;;;;;;6240892;23;19916;-67
2022/08/23 13:26:36;;;;;;;;;;;;;;;;;;6242633;23;19953;-67
2022/08/23 13:29:01;;;;;;;;;;;;;;;;;;6242221;23;19996;-66
2022/08/23 13:31:27;;;;;;;;;;;;;;;;;;6242659;22;19907;-67
2022/08/23 13:33:52;;;;;;;;;;;;;;;;;;6242290;23;19919;-68
2022/08/23 13:36:18;;;;;;;;;;;;;;;;;;6242711;23;20327;-66
2022/08/23 13:38:44;;;;;;;;;;;;;;;;;;6241696;23;19907;-68
2022/08/23 13:41:11;;;;;;;;;;;;;;;;;;6242745;23;20241;-67
2022/08/23 13:43:36;;;;;;;;;;;;;;;;;;6242393;23;19915;-65
2022/08/23 13:46:02;;;;;;;;;;;;;;;;;;6242427;23;19914;-66
2022/08/23 13:48:28;;;;;;;;;;;;;;;;;;6242119;23;20071;-65
2022/08/23 13:50:53;;;;;;;;;;;;;;;;;;6242899;23;19908;-68
2022/08/23 13:53:19;;;;;;;;;;;;;;;;;;6242358;23;19989;-67
2022/08/23 13:55:44;;;;;;;;;;;;;;;;;;6215770;23;19990;-67
2022/08/23 13:58:10;;;;;;;;;;;;;;;;;;6242128;23;20249;-66
2022/08/23 14:00:36;;;;;;;;;;;;;;;;;;6242549;23;19911;-66
2022/08/23 14:03:01;;;;;;;;;;;;;;;;;;6242026;23;20010;-68
2022/08/23 14:05:27;;;;;;;;;;;;;;;;;;6242284;23;20002;-68
2022/08/23 14:07:52;;;;;;;;;;;;;;;;;;6242112;23;19946;-66
2022/08/23 14:10:18;;;;;;;;;;;;;;;;;;6240883;23;19914;-67
2022/08/23 14:12:44;;;;;;;;;;;;;;;;;;6240257;23;19938;-67
2022/08/23 14:15:09;;;;;;;;;;;;;;;;;;6242878;23;20321;-68
2022/08/23 14:17:35;;;;;;;;;;;;;;;;;;6242067;23;19962;-65
2022/08/23 14:20:02;;;;;;;;;;;;;;;;;;6242163;23;19907;-66
2022/08/23 14:22:28;;;;;;;;;;;;;;;;;;6242215;23;19954;-65
2022/08/23 14:24:54;;;;;;;;;;;;;;;;;;6241907;23;19916;-66
2022/08/23 14:27:19;;;;;;;;;;;;;;;;;;6242237;23;20264;-67
2022/08/23 14:29:45;;;;;;;;;;;;;;;;;;6215672;23;19907;-70
2022/08/23 14:32:10;;;;;;;;;;;;;;;;;;6241818;22;19907;-69
2022/08/23 14:34:36;;;;;;;;;;;;;;;;;;6242126;23;19914;-69
2022/08/23 14:37:02;;;;;;;;;;;;;;;;;;6242039;23;19911;-69
2022/08/23 14:39:27;;;;;;;;;;;;;;;;;;6242152;23;19907;-69
2022/08/23 14:41:53;;;;;;;;;;;;;;;;;;6240129;23;20233;-69
2022/08/23 14:44:19;;;;;;;;;;;;;;;;;;6215272;23;20269;-69
2022/08/23 14:46:44;;;;;;;;;;;;;;;;;;6241750;23;19915;-70
2022/08/23 14:49:10;;;;;;;;;;;;;;;;;;6241916;23;19915;-69
2022/08/23 14:51:36;;;;;;;;;;;;;;;;;;6244082;23;20351;-69
2022/08/23 14:54:02;;;;;;;;;;;;;;;;;;6244245;23;19990;-69
2022/08/23 14:56:28;;;;;;;;;;;;;;;;;;6217405;23;19907;-69
2022/08/23 14:58:54;;;;;;;;;;;;;;;;;;6243547;23;19922;-69
2022/08/23 15:01:20;;;;;;;;;;;;;;;;;;6242546;23;19908;-69
2022/08/23 15:03:45;;;;;;;;;;;;;;;;;;6243618;23;19915;-69
2022/08/23 15:06:11;;;;;;;;;;;;;;;;;;6244331;23;20264;-69
2022/08/23 15:08:37;;;;;;;;;;;;;;;;;;6244293;23;19907;-69
2022/08/23 15:11:05;;;;;;;;;;;;;;;;;;6243935;23;19907;-69
2022/08/23 15:13:31;;;;;;;;;;;;;;;;;;6243625;23;19934;-69
2022/08/23 15:15:56;;;;;;;;;;;;;;;;;;6243856;23;20275;-69
2022/08/23 15:18:22;;;;;;;;;;;;;;;;;;6243757;23;19938;-68
2022/08/23 15:20:48;;;;;;;;;;;;;;;;;;6244034;23;19911;-69
2022/08/23 15:23:13;;;;;;;;;;;;;;;;;;6243841;23;20366;-69
2022/08/23 15:25:39;;;;;;;;;;;;;;;;;;6217441;23;19919;-69
2022/08/23 15:28:04;;;;;;;;;;;;;;;;;;6243588;23;19907;-70
2022/08/23 15:30:30;;;;;;;;;;;;;;;;;;6217229;23;19954;-70
2022/08/23 15:32:55;;;;;;;;;;;;;;;;;;6243219;22;20359;-69
2022/08/23 15:35:21;;;;;;;;;;;;;;;;;;6243611;23;19904;-69
2022/08/23 15:37:47;;;;;;;;;;;;;;;;;;6243380;23;19907;-69
2022/08/23 15:40:12;;;;;;;;;;;;;;;;;;6243182;23;19973;-69
2022/08/23 15:42:38;;;;;;;;;;;;;;;;;;6243261;23;19913;-69
2022/08/23 15:45:03;;;;;;;;;;;;;;;;;;6216371;23;19998;-69
2022/08/23 15:47:29;;;;;;;;;;;;;;;;;;6216642;23;19908;-69
2022/08/23 15:49:55;;;;;;;;;;;;;;;;;;6243530;23;19908;-69
2022/08/23 15:52:20;;;;;;;;;;;;;;;;;;6217051;23;20013;-69
2022/08/23 15:54:46;;;;;;;;;;;;;;;;;;6243419;23;19911;-69
2022/08/23 15:57:12;;;;;;;;;;;;;;;;;;6243901;23;19908;-69
2022/08/23 15:59:37;;;;;;;;;;;;;;;;;;6241506;23;20006;-69
2022/08/23 16:02:03;;;;;;;;;;;;;;;;;;6243781;23;19907;-69
2022/08/23 16:04:29;;;;;;;;;;;;;;;;;;6241555;23;19916;-69
2022/08/23 16:06:55;;;;;;;;;;;;;;;;;;6243360;23;19908;-69
2022/08/23 16:09:20;;;;;;;;;;;;;;;;;;6243592;23;19907;-69
2022/08/23 16:11:46;;;;;;;;;;;;;;;;;;6243458;23;19912;-69
2022/08/23 16:14:11;;;;;;;;;;;;;;;;;;6216533;23;19907;-69
2022/08/23 16:16:37;;;;;;;;;;;;;;;;;;6216986;23;19907;-69
2022/08/23 16:19:03;;;;;;;;;;;;;;;;;;6243129;23;20018;-69
2022/08/23 16:21:29;;;;;;;;;;;;;;;;;;6243389;23;19962;-69
2022/08/23 16:23:54;;;;;;;;;;;;;;;;;;6242883;23;20378;-69
2022/08/23 16:26:21;;;;;;;;;;;;;;;;;;6243675;23;19907;-69
2022/08/23 16:28:46;;;;;;;;;;;;;;;;;;6243362;23;19930;-69
2022/08/23 16:31:12;;;;;;;;;;;;;;;;;;6216653;22;20388;-69
2022/08/23 16:33:38;;;;;;;;;;;;;;;;;;6243132;23;20299;-68
2022/08/23 16:36:04;;;;;;;;;;;;;;;;;;6241222;23;19908;-69
2022/08/23 16:38:29;;;;;;;;;;;;;;;;;;6243229;23;19915;-72
2022/08/23 16:40:55;;;;;;;;;;;;;;;;;;6216568;23;19930;-68
2022/08/23 16:43:20;;;;;;;;;;;;;;;;;;6243044;23;19908;-69
2022/08/23 16:45:46;;;;;;;;;;;;;;;;;;6243209;23;20276;-69
2022/08/23 16:48:12;;;;;;;;;;;;;;;;;;6216602;23;19922;-69
2022/08/23 16:50:37;;;;;;;;;;;;;;;;;;6243243;23;20368;-69
2022/08/23 16:53:04;;;;;;;;;;;;;;;;;;6241250;23;19907;-69
2022/08/23 16:55:29;;;;;;;;;;;;;;;;;;6216501;23;19907;-69